sensor_id;sensor_type;location;lat;lon;timestamp;temperature;humidity
9329;DHT22;4703;48.748;19.142;2023-02-28T00:01:32;-2.00;99.90
9329;DHT22;4703;48.748;19.142;2023-02-28T00:06:28;-2.10;99.90
9329;DHT22;4703;48.748;19.142;2023-02-28T00:08:55;-2.00;99.90
9329;DHT22;4703;48.748;19.142;2023-02-28T00:13:49;-2.00;99.90
9329;DHT22;4703;48.748;19.142;2023-02-28T00:16:19;-2.10;99.90
9329;DHT22;4703;48.748;19.142;2023-02-28T00:18:49;-2.30;99.90
9329;DHT22;4703;48.748;19.142;2023-02-28T00:21:18;-2.20;99.90
9329;DHT22;4703;48.748;19.142;2023-02-28T00:23:45;-2.20;99.90
9329;DHT22;4703;48.748;19.142;2023-02-28T00:26:12;-2.30;99.90
9329;DHT22;4703;48.748;19.142;2023-02-28T00:36:10;-2.20;99.90
9329;DHT22;4703;48.748;19.142;2023-02-28T00:38:38;-2.30;99.90
9329;DHT22;4703;48.748;19.142;2023-02-28T00:41:07;-2.20;99.90
9329;DHT22;4703;48.748;19.142;2023-02-28T00:43:37;-2.20;99.90
9329;DHT22;4703;48.748;19.142;2023-02-28T00:46:05;-2.20;99.90
9329;DHT22;4703;48.748;19.142;2023-02-28T00:48:32;-2.30;99.90
9329;DHT22;4703;48.748;19.142;2023-02-28T00:53:28;-2.50;99.90
9329;DHT22;4703;48.748;19.142;2023-02-28T00:55:56;-2.50;99.90
9329;DHT22;4703;48.748;19.142;2023-02-28T00:58:23;-2.50;99.90
9329;DHT22;4703;48.748;19.142;2023-02-28T01:00:51;-2.50;99.90
9329;DHT22;4703;48.748;19.142;2023-02-28T01:03:20;-2.50;99.90
9329;DHT22;4703;48.748;19.142;2023-02-28T01:05:47;-2.50;99.90
9329;DHT22;4703;48.748;19.142;2023-02-28T01:08:15;-2.50;99.90
9329;DHT22;4703;48.748;19.142;2023-02-28T01:13:10;-2.40;99.90
9329;DHT22;4703;48.748;19.142;2023-02-28T01:15:42;-2.60;99.90
9329;DHT22;4703;48.748;19.142;2023-02-28T01:20:40;-2.50;99.90
9329;DHT22;4703;48.748;19.142;2023-02-28T01:23:07;-2.40;99.90
9329;DHT22;4703;48.748;19.142;2023-02-28T01:25:37;-2.50;99.90
9329;DHT22;4703;48.748;19.142;2023-02-28T01:30:32;-2.50;99.90
9329;DHT22;4703;48.748;19.142;2023-02-28T01:35:27;-2.50;99.90
9329;DHT22;4703;48.748;19.142;2023-02-28T01:40:30;-2.40;99.90
9329;DHT22;4703;48.748;19.142;2023-02-28T01:45:31;-2.50;99.90
9329;DHT22;4703;48.748;19.142;2023-02-28T01:48:05;-2.50;99.90
9329;DHT22;4703;48.748;19.142;2023-02-28T01:50:39;-2.60;99.90
9329;DHT22;4703;48.748;19.142;2023-02-28T01:53:13;-2.50;99.90
9329;DHT22;4703;48.748;19.142;2023-02-28T01:55:46;-2.60;99.90
9329;DHT22;4703;48.748;19.142;2023-02-28T01:58:15;-2.50;99.90
9329;DHT22;4703;48.748;19.142;2023-02-28T02:03:13;-2.50;99.90
9329;DHT22;4703;48.748;19.142;2023-02-28T02:08:24;-2.50;99.90
9329;DHT22;4703;48.748;19.142;2023-02-28T02:10:59;-2.50;99.90
9329;DHT22;4703;48.748;19.142;2023-02-28T02:16:41;-2.40;99.90
9329;DHT22;4703;48.748;19.142;2023-02-28T02:27:35;-2.40;99.90
9329;DHT22;4703;48.748;19.142;2023-02-28T02:30:32;-2.40;99.90
9329;DHT22;4703;48.748;19.142;2023-02-28T02:36:42;-2.50;99.90
9329;DHT22;4703;48.748;19.142;2023-02-28T02:39:54;-2.40;99.90
9329;DHT22;4703;48.748;19.142;2023-02-28T02:42:36;-2.40;99.90
9329;DHT22;4703;48.748;19.142;2023-02-28T02:45:36;-2.40;99.90
9329;DHT22;4703;48.748;19.142;2023-02-28T02:48:12;-2.40;99.90
9329;DHT22;4703;48.748;19.142;2023-02-28T02:50:49;-2.30;99.90
9329;DHT22;4703;48.748;19.142;2023-02-28T02:53:24;-2.30;99.90
9329;DHT22;4703;48.748;19.142;2023-02-28T02:55:56;-2.30;99.90
9329;DHT22;4703;48.748;19.142;2023-02-28T02:58:32;-2.30;99.90
9329;DHT22;4703;48.748;19.142;2023-02-28T03:01:03;-2.20;99.90
9329;DHT22;4703;48.748;19.142;2023-02-28T03:03:33;-2.20;99.90
9329;DHT22;4703;48.748;19.142;2023-02-28T03:06:01;-2.20;99.90
9329;DHT22;4703;48.748;19.142;2023-02-28T03:08:34;-2.20;99.90
9329;DHT22;4703;48.748;19.142;2023-02-28T03:11:06;-2.10;99.90
9329;DHT22;4703;48.748;19.142;2023-02-28T03:22:48;-2.00;99.90
9329;DHT22;4703;48.748;19.142;2023-02-28T03:28:19;-1.90;99.90
9329;DHT22;4703;48.748;19.142;2023-02-28T03:33:50;-1.80;99.90
9329;DHT22;4703;48.748;19.142;2023-02-28T03:36:35;-2.00;99.90
9329;DHT22;4703;48.748;19.142;2023-02-28T03:39:31;-2.00;99.90
9329;DHT22;4703;48.748;19.142;2023-02-28T03:42:15;-1.90;99.90
9329;DHT22;4703;48.748;19.142;2023-02-28T03:44:54;-1.80;99.90
9329;DHT22;4703;48.748;19.142;2023-02-28T03:47:51;-2.00;99.90
9329;DHT22;4703;48.748;19.142;2023-02-28T03:50:42;-1.90;99.90
9329;DHT22;4703;48.748;19.142;2023-02-28T03:53:38;-1.80;99.90
9329;DHT22;4703;48.748;19.142;2023-02-28T03:56:18;-1.90;99.90
9329;DHT22;4703;48.748;19.142;2023-02-28T03:59:17;-1.80;99.90
9329;DHT22;4703;48.748;19.142;2023-02-28T04:01:48;-1.90;99.90
9329;DHT22;4703;48.748;19.142;2023-02-28T04:04:16;-1.80;99.90
9329;DHT22;4703;48.748;19.142;2023-02-28T04:06:45;-1.90;99.90
9329;DHT22;4703;48.748;19.142;2023-02-28T04:09:14;-1.70;99.90
9329;DHT22;4703;48.748;19.142;2023-02-28T04:11:46;-1.80;99.90
9329;DHT22;4703;48.748;19.142;2023-02-28T04:14:18;-1.80;99.90
9329;DHT22;4703;48.748;19.142;2023-02-28T04:19:14;-1.70;99.90
9329;DHT22;4703;48.748;19.142;2023-02-28T04:21:43;-1.80;99.90
9329;DHT22;4703;48.748;19.142;2023-02-28T04:24:14;-1.90;99.90
9329;DHT22;4703;48.748;19.142;2023-02-28T04:26:45;-1.90;99.90
9329;DHT22;4703;48.748;19.142;2023-02-28T04:29:22;-1.80;99.90
9329;DHT22;4703;48.748;19.142;2023-02-28T04:31:49;-1.90;99.90
9329;DHT22;4703;48.748;19.142;2023-02-28T04:36:45;-1.90;99.90
9329;DHT22;4703;48.748;19.142;2023-02-28T04:39:35;-1.90;99.90
9329;DHT22;4703;48.748;19.142;2023-02-28T04:42:03;-1.90;99.90
9329;DHT22;4703;48.748;19.142;2023-02-28T04:46:58;-2.00;99.90
9329;DHT22;4703;48.748;19.142;2023-02-28T04:54:20;-2.00;99.90
9329;DHT22;4703;48.748;19.142;2023-02-28T04:56:47;-2.10;99.90
9329;DHT22;4703;48.748;19.142;2023-02-28T04:59:17;-2.10;99.90
9329;DHT22;4703;48.748;19.142;2023-02-28T05:01:47;-2.60;99.90
9329;DHT22;4703;48.748;19.142;2023-02-28T05:04:15;-2.20;99.90
9329;DHT22;4703;48.748;19.142;2023-02-28T05:06:42;-2.10;99.90
9329;DHT22;4703;48.748;19.142;2023-02-28T05:09:10;-2.20;99.90
9329;DHT22;4703;48.748;19.142;2023-02-28T05:14:11;-2.10;99.90
9329;DHT22;4703;48.748;19.142;2023-02-28T05:21:49;-2.20;99.90
9329;DHT22;4703;48.748;19.142;2023-02-28T05:26:51;-2.20;99.90
9329;DHT22;4703;48.748;19.142;2023-02-28T05:29:19;-2.20;99.90
9329;DHT22;4703;48.748;19.142;2023-02-28T05:31:47;-2.30;99.90
9329;DHT22;4703;48.748;19.142;2023-02-28T05:39:10;-2.40;99.90
9329;DHT22;4703;48.748;19.142;2023-02-28T05:41:43;-2.40;99.90
9329;DHT22;4703;48.748;19.142;2023-02-28T05:44:10;-2.60;99.90
9329;DHT22;4703;48.748;19.142;2023-02-28T05:51:33;-2.50;99.90
9329;DHT22;4703;48.748;19.142;2023-02-28T06:04:02;-2.50;99.90
9329;DHT22;4703;48.748;19.142;2023-02-28T06:09:06;-2.60;99.90
9329;DHT22;4703;48.748;19.142;2023-02-28T06:14:01;-2.60;99.90
9329;DHT22;4703;48.748;19.142;2023-02-28T06:16:32;-2.60;99.90
9329;DHT22;4703;48.748;19.142;2023-02-28T06:19:02;-2.60;99.90
9329;DHT22;4703;48.748;19.142;2023-02-28T06:21:30;-2.60;99.90
9329;DHT22;4703;48.748;19.142;2023-02-28T06:23:58;-2.50;99.90
9329;DHT22;4703;48.748;19.142;2023-02-28T06:28:53;-2.50;99.90
9329;DHT22;4703;48.748;19.142;2023-02-28T06:31:21;-2.50;99.90
9329;DHT22;4703;48.748;19.142;2023-02-28T06:36:18;-2.30;99.90
9329;DHT22;4703;48.748;19.142;2023-02-28T06:41:14;-2.30;99.90
9329;DHT22;4703;48.748;19.142;2023-02-28T06:43:42;-2.20;99.90
9329;DHT22;4703;48.748;19.142;2023-02-28T06:46:12;-2.20;99.90
9329;DHT22;4703;48.748;19.142;2023-02-28T06:48:42;-2.20;99.90
9329;DHT22;4703;48.748;19.142;2023-02-28T06:51:16;-2.00;99.90
9329;DHT22;4703;48.748;19.142;2023-02-28T06:53:44;-1.80;99.90
9329;DHT22;4703;48.748;19.142;2023-02-28T06:56:14;-1.90;99.90
9329;DHT22;4703;48.748;19.142;2023-02-28T07:01:13;-1.80;99.90
9329;DHT22;4703;48.748;19.142;2023-02-28T07:06:08;-1.60;99.90
9329;DHT22;4703;48.748;19.142;2023-02-28T07:08:35;-1.50;99.90
9329;DHT22;4703;48.748;19.142;2023-02-28T07:11:03;-1.50;99.90
9329;DHT22;4703;48.748;19.142;2023-02-28T07:13:30;-1.40;99.90
9329;DHT22;4703;48.748;19.142;2023-02-28T07:15:59;-1.40;99.90
9329;DHT22;4703;48.748;19.142;2023-02-28T07:18:28;-1.20;99.90
9329;DHT22;4703;48.748;19.142;2023-02-28T07:20:55;-1.20;99.90
9329;DHT22;4703;48.748;19.142;2023-02-28T07:23:22;-1.00;99.90
9329;DHT22;4703;48.748;19.142;2023-02-28T07:25:50;-0.90;99.90
9329;DHT22;4703;48.748;19.142;2023-02-28T07:28:17;-0.80;99.90
9329;DHT22;4703;48.748;19.142;2023-02-28T07:30:44;-0.90;99.90
9329;DHT22;4703;48.748;19.142;2023-02-28T07:33:11;-0.80;99.90
9329;DHT22;4703;48.748;19.142;2023-02-28T07:35:39;-0.80;99.90
9329;DHT22;4703;48.748;19.142;2023-02-28T07:38:06;-0.60;99.90
9329;DHT22;4703;48.748;19.142;2023-02-28T07:40:36;1.30;99.90
9329;DHT22;4703;48.748;19.142;2023-02-28T07:43:03;-0.40;99.90
9329;DHT22;4703;48.748;19.142;2023-02-28T07:45:31;0.60;99.90
9329;DHT22;4703;48.748;19.142;2023-02-28T07:48:01;-0.20;99.90
9329;DHT22;4703;48.748;19.142;2023-02-28T07:50:28;-0.20;99.90
9329;DHT22;4703;48.748;19.142;2023-02-28T07:52:59;-0.30;99.80
9329;DHT22;4703;48.748;19.142;2023-02-28T07:55:26;0.20;99.90
9329;DHT22;4703;48.748;19.142;2023-02-28T07:57:53;0.30;99.70
9329;DHT22;4703;48.748;19.142;2023-02-28T08:00:21;0.50;99.50
9329;DHT22;4703;48.748;19.142;2023-02-28T08:02:48;0.60;99.10
9329;DHT22;4703;48.748;19.142;2023-02-28T08:05:15;0.60;98.50
9329;DHT22;4703;48.748;19.142;2023-02-28T08:07:43;0.70;97.70
9329;DHT22;4703;48.748;19.142;2023-02-28T08:10:10;0.80;97.70
9329;DHT22;4703;48.748;19.142;2023-02-28T08:12:37;0.80;97.60
9329;DHT22;4703;48.748;19.142;2023-02-28T08:15:04;0.90;97.40
9329;DHT22;4703;48.748;19.142;2023-02-28T08:17:31;1.00;97.00
9329;DHT22;4703;48.748;19.142;2023-02-28T08:20:01;1.00;96.50
9329;DHT22;4703;48.748;19.142;2023-02-28T08:22:28;1.10;97.20
9329;DHT22;4703;48.748;19.142;2023-02-28T08:24:57;1.10;97.80
9329;DHT22;4703;48.748;19.142;2023-02-28T08:27:24;1.20;97.00
9329;DHT22;4703;48.748;19.142;2023-02-28T08:29:51;1.20;96.60
9329;DHT22;4703;48.748;19.142;2023-02-28T08:32:18;1.40;96.20
9329;DHT22;4703;48.748;19.142;2023-02-28T08:34:55;1.40;95.40
9329;DHT22;4703;48.748;19.142;2023-02-28T08:37:22;1.40;95.20
9329;DHT22;4703;48.748;19.142;2023-02-28T08:39:50;1.50;95.50
9329;DHT22;4703;48.748;19.142;2023-02-28T08:42:20;1.60;94.90
9329;DHT22;4703;48.748;19.142;2023-02-28T08:44:47;1.70;94.70
9329;DHT22;4703;48.748;19.142;2023-02-28T08:47:14;1.70;94.40
9329;DHT22;4703;48.748;19.142;2023-02-28T08:49:41;1.90;94.60
9329;DHT22;4703;48.748;19.142;2023-02-28T08:52:08;1.80;93.90
9329;DHT22;4703;48.748;19.142;2023-02-28T08:54:42;1.90;94.20
9329;DHT22;4703;48.748;19.142;2023-02-28T08:57:16;2.00;94.50
9329;DHT22;4703;48.748;19.142;2023-02-28T08:59:48;2.00;94.30
9329;DHT22;4703;48.748;19.142;2023-02-28T09:02:18;2.00;93.80
9329;DHT22;4703;48.748;19.142;2023-02-28T09:04:48;2.20;92.80
9329;DHT22;4703;48.748;19.142;2023-02-28T09:07:20;4.70;93.10
9329;DHT22;4703;48.748;19.142;2023-02-28T09:09:51;2.20;92.20
9329;DHT22;4703;48.748;19.142;2023-02-28T09:12:26;2.30;91.50
9329;DHT22;4703;48.748;19.142;2023-02-28T09:14:55;2.30;91.40
9329;DHT22;4703;48.748;19.142;2023-02-28T09:17:25;2.40;91.70
9329;DHT22;4703;48.748;19.142;2023-02-28T09:19:57;2.50;91.00
9329;DHT22;4703;48.748;19.142;2023-02-28T09:22:29;2.60;90.80
9329;DHT22;4703;48.748;19.142;2023-02-28T09:25:01;2.70;90.60
9329;DHT22;4703;48.748;19.142;2023-02-28T09:27:28;2.80;90.60
9329;DHT22;4703;48.748;19.142;2023-02-28T09:29:55;3.00;90.50
9329;DHT22;4703;48.748;19.142;2023-02-28T09:32:22;3.20;90.20
9329;DHT22;4703;48.748;19.142;2023-02-28T09:34:49;4.70;90.60
9329;DHT22;4703;48.748;19.142;2023-02-28T09:37:16;6.50;91.00
9329;DHT22;4703;48.748;19.142;2023-02-28T09:39:43;5.60;89.60
9329;DHT22;4703;48.748;19.142;2023-02-28T09:42:25;4.30;87.30
9329;DHT22;4703;48.748;19.142;2023-02-28T09:44:57;4.60;84.10
9329;DHT22;4703;48.748;19.142;2023-02-28T09:53:10;5.40;81.30
9329;DHT22;4703;48.748;19.142;2023-02-28T09:56:36;7.60;82.20
9329;DHT22;4703;48.748;19.142;2023-02-28T10:06:50;6.60;72.40
9329;DHT22;4703;48.748;19.142;2023-02-28T10:09:21;6.80;68.00
9329;DHT22;4703;48.748;19.142;2023-02-28T10:11:53;6.90;65.10
9329;DHT22;4703;48.748;19.142;2023-02-28T10:14:28;10.30;65.20
9329;DHT22;4703;48.748;19.142;2023-02-28T10:17:04;8.50;63.70
9329;DHT22;4703;48.748;19.142;2023-02-28T10:19:44;6.80;60.90
9329;DHT22;4703;48.748;19.142;2023-02-28T10:22:24;6.80;60.80
9329;DHT22;4703;48.748;19.142;2023-02-28T10:24:55;6.80;63.00
9329;DHT22;4703;48.748;19.142;2023-02-28T10:27:30;6.70;62.00
9329;DHT22;4703;48.748;19.142;2023-02-28T10:30:00;6.70;61.10
9329;DHT22;4703;48.748;19.142;2023-02-28T10:32:33;6.80;62.20
9329;DHT22;4703;48.748;19.142;2023-02-28T10:35:10;9.00;60.70
9329;DHT22;4703;48.748;19.142;2023-02-28T10:37:40;9.50;62.10
9329;DHT22;4703;48.748;19.142;2023-02-28T10:42:57;7.20;59.10
9329;DHT22;4703;48.748;19.142;2023-02-28T10:45:25;9.90;59.80
9329;DHT22;4703;48.748;19.142;2023-02-28T10:48:29;7.30;57.70
9329;DHT22;4703;48.748;19.142;2023-02-28T10:50:57;7.30;57.80
9329;DHT22;4703;48.748;19.142;2023-02-28T10:53:32;7.50;56.50
9329;DHT22;4703;48.748;19.142;2023-02-28T10:56:23;7.20;56.10
9329;DHT22;4703;48.748;19.142;2023-02-28T10:59:03;7.10;56.60
9329;DHT22;4703;48.748;19.142;2023-02-28T11:01:40;7.20;58.00
9329;DHT22;4703;48.748;19.142;2023-02-28T11:07:01;7.30;57.00
9329;DHT22;4703;48.748;19.142;2023-02-28T11:09:39;8.10;57.40
9329;DHT22;4703;48.748;19.142;2023-02-28T11:12:34;8.30;57.50
9329;DHT22;4703;48.748;19.142;2023-02-28T11:15:25;7.70;55.20
9329;DHT22;4703;48.748;19.142;2023-02-28T11:20:38;7.70;55.50
9329;DHT22;4703;48.748;19.142;2023-02-28T11:23:12;9.70;58.10
9329;DHT22;4703;48.748;19.142;2023-02-28T11:25:40;8.10;55.60
9329;DHT22;4703;48.748;19.142;2023-02-28T11:28:35;8.40;54.90
9329;DHT22;4703;48.748;19.142;2023-02-28T11:38:59;11.80;53.60
9329;DHT22;4703;48.748;19.142;2023-02-28T11:47:48;10.80;49.30
9329;DHT22;4703;48.748;19.142;2023-02-28T11:56:43;12.00;49.10
9329;DHT22;4703;48.748;19.142;2023-02-28T11:59:35;12.00;45.70
9329;DHT22;4703;48.748;19.142;2023-02-28T12:05:38;11.80;44.70
9329;DHT22;4703;48.748;19.142;2023-02-28T12:11:19;11.30;45.00
9329;DHT22;4703;48.748;19.142;2023-02-28T12:14:22;11.20;45.80
9329;DHT22;4703;48.748;19.142;2023-02-28T12:17:22;11.20;44.70
9329;DHT22;4703;48.748;19.142;2023-02-28T12:26:10;11.60;45.80
9329;DHT22;4703;48.748;19.142;2023-02-28T12:28:46;11.70;45.00
9329;DHT22;4703;48.748;19.142;2023-02-28T12:31:24;13.20;47.10
9329;DHT22;4703;48.748;19.142;2023-02-28T12:33:59;13.10;47.20
9329;DHT22;4703;48.748;19.142;2023-02-28T12:36:30;13.60;45.30
9329;DHT22;4703;48.748;19.142;2023-02-28T12:39:04;12.80;44.90
9329;DHT22;4703;48.748;19.142;2023-02-28T12:42:01;13.10;46.70
9329;DHT22;4703;48.748;19.142;2023-02-28T12:44:39;11.00;43.40
9329;DHT22;4703;48.748;19.142;2023-02-28T12:47:15;10.90;43.60
9329;DHT22;4703;48.748;19.142;2023-02-28T12:49:51;13.50;46.00
9329;DHT22;4703;48.748;19.142;2023-02-28T12:58:57;10.50;43.80
9329;DHT22;4703;48.748;19.142;2023-02-28T13:01:47;10.50;44.20
9329;DHT22;4703;48.748;19.142;2023-02-28T13:10:49;10.90;43.40
9329;DHT22;4703;48.748;19.142;2023-02-28T13:13:23;11.00;43.10
9329;DHT22;4703;48.748;19.142;2023-02-28T13:18:38;11.20;43.00
9329;DHT22;4703;48.748;19.142;2023-02-28T13:24:04;11.20;43.00
9329;DHT22;4703;48.748;19.142;2023-02-28T13:39:49;11.60;43.40
9329;DHT22;4703;48.748;19.142;2023-02-28T13:47:48;12.00;45.50
9329;DHT22;4703;48.748;19.142;2023-02-28T13:50:36;10.70;45.80
9329;DHT22;4703;48.748;19.142;2023-02-28T13:59:16;9.40;46.00
9329;DHT22;4703;48.748;19.142;2023-02-28T14:07:28;8.80;47.50
9329;DHT22;4703;48.748;19.142;2023-02-28T14:10:05;8.70;47.20
9329;DHT22;4703;48.748;19.142;2023-02-28T14:15:41;8.40;48.20
9329;DHT22;4703;48.748;19.142;2023-02-28T14:18:23;8.40;48.80
9329;DHT22;4703;48.748;19.142;2023-02-28T14:21:36;8.40;49.80
9329;DHT22;4703;48.748;19.142;2023-02-28T14:29:56;9.80;51.00
9329;DHT22;4703;48.748;19.142;2023-02-28T14:32:51;10.00;50.60
9329;DHT22;4703;48.748;19.142;2023-02-28T14:35:35;8.00;50.90
9329;DHT22;4703;48.748;19.142;2023-02-28T14:38:19;7.90;51.00
9329;DHT22;4703;48.748;19.142;2023-02-28T14:40:49;7.90;51.80
9329;DHT22;4703;48.748;19.142;2023-02-28T14:43:26;7.90;52.10
9329;DHT22;4703;48.748;19.142;2023-02-28T14:46:00;7.70;52.50
9329;DHT22;4703;48.748;19.142;2023-02-28T14:48:28;7.60;53.20
9329;DHT22;4703;48.748;19.142;2023-02-28T14:50:58;9.90;56.00
9329;DHT22;4703;48.748;19.142;2023-02-28T14:53:30;7.50;53.80
9329;DHT22;4703;48.748;19.142;2023-02-28T14:56:02;7.40;54.10
9329;DHT22;4703;48.748;19.142;2023-02-28T14:58:31;7.30;54.50
9329;DHT22;4703;48.748;19.142;2023-02-28T15:01:02;7.20;54.70
9329;DHT22;4703;48.748;19.142;2023-02-28T15:03:33;9.40;56.70
9329;DHT22;4703;48.748;19.142;2023-02-28T15:06:03;7.00;55.70
9329;DHT22;4703;48.748;19.142;2023-02-28T15:08:32;7.00;56.10
9329;DHT22;4703;48.748;19.142;2023-02-28T15:11:23;9.60;58.20
9329;DHT22;4703;48.748;19.142;2023-02-28T15:13:52;6.80;56.50
9329;DHT22;4703;48.748;19.142;2023-02-28T15:16:31;6.80;57.00
9329;DHT22;4703;48.748;19.142;2023-02-28T15:19:11;6.70;57.40
9329;DHT22;4703;48.748;19.142;2023-02-28T15:22:00;9.30;59.60
9329;DHT22;4703;48.748;19.142;2023-02-28T15:24:41;6.60;57.90
9329;DHT22;4703;48.748;19.142;2023-02-28T15:27:23;6.50;58.30
9329;DHT22;4703;48.748;19.142;2023-02-28T15:29:58;6.50;58.60
9329;DHT22;4703;48.748;19.142;2023-02-28T15:32:36;6.40;58.80
9329;DHT22;4703;48.748;19.142;2023-02-28T15:40:37;6.20;59.70
9329;DHT22;4703;48.748;19.142;2023-02-28T15:43:28;6.20;59.90
9329;DHT22;4703;48.748;19.142;2023-02-28T15:46:02;8.40;62.90
9329;DHT22;4703;48.748;19.142;2023-02-28T15:48:43;6.10;60.60
9329;DHT22;4703;48.748;19.142;2023-02-28T15:51:24;6.20;61.60
9329;DHT22;4703;48.748;19.142;2023-02-28T15:54:06;8.60;63.40
9329;DHT22;4703;48.748;19.142;2023-02-28T15:56:43;6.20;61.20
9329;DHT22;4703;48.748;19.142;2023-02-28T15:59:19;6.20;62.70
9329;DHT22;4703;48.748;19.142;2023-02-28T16:02:28;6.20;63.40
9329;DHT22;4703;48.748;19.142;2023-02-28T16:05:46;6.10;63.90
9329;DHT22;4703;48.748;19.142;2023-02-28T16:08:06;6.20;63.60
9329;DHT22;4703;48.748;19.142;2023-02-28T16:10:38;6.10;62.90
9329;DHT22;4703;48.748;19.142;2023-02-28T16:13:06;6.00;62.50
9329;DHT22;4703;48.748;19.142;2023-02-28T16:15:38;6.00;62.50
9329;DHT22;4703;48.748;19.142;2023-02-28T16:18:12;6.00;62.90
9329;DHT22;4703;48.748;19.142;2023-02-28T16:20:39;7.80;66.10
9329;DHT22;4703;48.748;19.142;2023-02-28T16:23:06;6.30;65.20
9329;DHT22;4703;48.748;19.142;2023-02-28T16:25:35;5.70;64.90
9329;DHT22;4703;48.748;19.142;2023-02-28T16:28:05;8.30;68.60
9329;DHT22;4703;48.748;19.142;2023-02-28T16:30:39;5.60;67.20
9329;DHT22;4703;48.748;19.142;2023-02-28T16:33:07;5.50;67.70
9329;DHT22;4703;48.748;19.142;2023-02-28T16:35:35;6.30;69.60
9329;DHT22;4703;48.748;19.142;2023-02-28T16:38:02;5.40;69.00
9329;DHT22;4703;48.748;19.142;2023-02-28T16:40:34;6.70;70.90
9329;DHT22;4703;48.748;19.142;2023-02-28T16:43:07;5.30;69.90
9329;DHT22;4703;48.748;19.142;2023-02-28T16:45:36;7.40;72.40
9329;DHT22;4703;48.748;19.142;2023-02-28T16:48:03;5.20;70.80
9329;DHT22;4703;48.748;19.142;2023-02-28T16:50:31;5.20;72.00
9329;DHT22;4703;48.748;19.142;2023-02-28T16:52:59;5.10;72.40
9329;DHT22;4703;48.748;19.142;2023-02-28T16:55:27;7.60;75.20
9329;DHT22;4703;48.748;19.142;2023-02-28T16:57:56;5.00;72.90
9329;DHT22;4703;48.748;19.142;2023-02-28T17:00:25;4.90;73.70
9329;DHT22;4703;48.748;19.142;2023-02-28T17:02:54;4.90;74.50
9329;DHT22;4703;48.748;19.142;2023-02-28T17:05:21;4.90;75.90
9329;DHT22;4703;48.748;19.142;2023-02-28T17:07:49;4.80;76.70
9329;DHT22;4703;48.748;19.142;2023-02-28T17:10:19;4.70;77.00
9329;DHT22;4703;48.748;19.142;2023-02-28T17:12:50;4.70;77.70
9329;DHT22;4703;48.748;19.142;2023-02-28T17:15:19;4.70;77.80
9329;DHT22;4703;48.748;19.142;2023-02-28T17:17:47;6.20;79.50
9329;DHT22;4703;48.748;19.142;2023-02-28T17:20:17;4.40;78.10
9329;DHT22;4703;48.748;19.142;2023-02-28T17:22:52;7.30;82.50
9329;DHT22;4703;48.748;19.142;2023-02-28T17:25:21;6.50;81.90
9329;DHT22;4703;48.748;19.142;2023-02-28T17:27:49;7.20;83.20
9329;DHT22;4703;48.748;19.142;2023-02-28T17:30:20;7.50;84.40
9329;DHT22;4703;48.748;19.142;2023-02-28T17:32:49;7.20;84.20
9329;DHT22;4703;48.748;19.142;2023-02-28T17:35:16;4.30;82.30
9329;DHT22;4703;48.748;19.142;2023-02-28T17:37:43;4.20;83.00
9329;DHT22;4703;48.748;19.142;2023-02-28T17:40:17;6.70;85.90
9329;DHT22;4703;48.748;19.142;2023-02-28T17:42:49;4.10;83.30
9329;DHT22;4703;48.748;19.142;2023-02-28T17:45:18;7.00;86.90
9329;DHT22;4703;48.748;19.142;2023-02-28T17:47:48;4.00;84.70
9329;DHT22;4703;48.748;19.142;2023-02-28T17:50:20;4.00;85.20
9329;DHT22;4703;48.748;19.142;2023-02-28T17:52:48;3.90;85.30
9329;DHT22;4703;48.748;19.142;2023-02-28T17:55:16;3.90;86.30
9329;DHT22;4703;48.748;19.142;2023-02-28T17:57:45;3.80;86.90
9329;DHT22;4703;48.748;19.142;2023-02-28T18:00:15;3.70;88.10
9329;DHT22;4703;48.748;19.142;2023-02-28T18:02:44;3.70;89.00
9329;DHT22;4703;48.748;19.142;2023-02-28T18:05:11;6.60;91.10
9329;DHT22;4703;48.748;19.142;2023-02-28T18:07:39;3.50;90.10
9329;DHT22;4703;48.748;19.142;2023-02-28T18:10:12;3.40;90.10
9329;DHT22;4703;48.748;19.142;2023-02-28T18:12:42;3.50;90.30
9329;DHT22;4703;48.748;19.142;2023-02-28T18:15:10;5.90;91.90
9329;DHT22;4703;48.748;19.142;2023-02-28T18:17:37;6.40;92.20
9329;DHT22;4703;48.748;19.142;2023-02-28T18:20:04;3.10;91.00
9329;DHT22;4703;48.748;19.142;2023-02-28T18:22:32;3.10;91.30
9329;DHT22;4703;48.748;19.142;2023-02-28T18:25:04;3.10;91.70
9329;DHT22;4703;48.748;19.142;2023-02-28T18:27:31;3.00;92.00
9329;DHT22;4703;48.748;19.142;2023-02-28T18:29:58;2.80;92.60
9329;DHT22;4703;48.748;19.142;2023-02-28T18:32:25;6.10;94.60
9329;DHT22;4703;48.748;19.142;2023-02-28T18:34:53;2.60;93.30
9329;DHT22;4703;48.748;19.142;2023-02-28T18:37:20;2.60;93.70
9329;DHT22;4703;48.748;19.142;2023-02-28T18:39:47;2.60;94.00
9329;DHT22;4703;48.748;19.142;2023-02-28T18:42:13;5.30;95.40
9329;DHT22;4703;48.748;19.142;2023-02-28T18:44:40;2.50;94.60
9329;DHT22;4703;48.748;19.142;2023-02-28T18:47:07;2.50;94.70
9329;DHT22;4703;48.748;19.142;2023-02-28T18:49:35;2.40;95.00
9329;DHT22;4703;48.748;19.142;2023-02-28T18:52:03;2.30;95.10
9329;DHT22;4703;48.748;19.142;2023-02-28T18:54:30;2.20;95.20
9329;DHT22;4703;48.748;19.142;2023-02-28T18:56:57;4.70;96.50
9329;DHT22;4703;48.748;19.142;2023-02-28T18:59:25;2.10;95.70
9329;DHT22;4703;48.748;19.142;2023-02-28T19:01:52;4.50;96.80
9329;DHT22;4703;48.748;19.142;2023-02-28T19:04:19;2.10;95.60
9329;DHT22;4703;48.748;19.142;2023-02-28T19:06:46;2.10;96.10
9329;DHT22;4703;48.748;19.142;2023-02-28T19:09:13;5.50;97.60
9329;DHT22;4703;48.748;19.142;2023-02-28T19:11:40;2.00;96.30
9329;DHT22;4703;48.748;19.142;2023-02-28T19:14:07;4.70;97.90
9329;DHT22;4703;48.748;19.142;2023-02-28T19:16:35;2.00;96.70
9329;DHT22;4703;48.748;19.142;2023-02-28T19:19:02;1.90;96.50
9329;DHT22;4703;48.748;19.142;2023-02-28T19:21:29;1.90;96.70
9329;DHT22;4703;48.748;19.142;2023-02-28T19:23:56;1.90;96.80
9329;DHT22;4703;48.748;19.142;2023-02-28T19:26:24;2.10;97.20
9329;DHT22;4703;48.748;19.142;2023-02-28T19:28:52;1.70;97.00
9329;DHT22;4703;48.748;19.142;2023-02-28T19:31:24;4.20;98.40
9329;DHT22;4703;48.748;19.142;2023-02-28T19:33:51;1.80;97.10
9329;DHT22;4703;48.748;19.142;2023-02-28T19:36:20;2.60;97.70
9329;DHT22;4703;48.748;19.142;2023-02-28T19:38:47;1.40;97.10
9329;DHT22;4703;48.748;19.142;2023-02-28T19:41:16;1.80;97.00
9329;DHT22;4703;48.748;19.142;2023-02-28T19:43:43;1.60;97.50
9329;DHT22;4703;48.748;19.142;2023-02-28T19:46:11;1.70;97.10
9329;DHT22;4703;48.748;19.142;2023-02-28T19:48:39;1.70;97.30
9329;DHT22;4703;48.748;19.142;2023-02-28T19:51:11;1.70;97.50
9329;DHT22;4703;48.748;19.142;2023-02-28T19:53:39;1.50;97.70
9329;DHT22;4703;48.748;19.142;2023-02-28T19:56:08;3.50;98.90
9329;DHT22;4703;48.748;19.142;2023-02-28T19:58:36;1.40;98.10
9329;DHT22;4703;48.748;19.142;2023-02-28T20:01:08;1.40;98.30
9329;DHT22;4703;48.748;19.142;2023-02-28T20:03:36;1.40;98.50
9329;DHT22;4703;48.748;19.142;2023-02-28T20:06:06;1.40;98.70
9329;DHT22;4703;48.748;19.142;2023-02-28T20:08:36;1.40;98.50
9329;DHT22;4703;48.748;19.142;2023-02-28T20:11:09;3.20;99.30
9329;DHT22;4703;48.748;19.142;2023-02-28T20:13:37;4.00;99.80
9329;DHT22;4703;48.748;19.142;2023-02-28T20:16:07;1.20;98.70
9329;DHT22;4703;48.748;19.142;2023-02-28T20:18:37;1.30;98.60
9329;DHT22;4703;48.748;19.142;2023-02-28T20:21:07;1.20;98.80
9329;DHT22;4703;48.748;19.142;2023-02-28T20:23:37;1.30;98.90
9329;DHT22;4703;48.748;19.142;2023-02-28T20:26:05;3.50;99.90
9329;DHT22;4703;48.748;19.142;2023-02-28T20:28:32;1.30;99.10
9329;DHT22;4703;48.748;19.142;2023-02-28T20:30:59;1.20;99.10